createdAt,value
2017-12-23T00:01:40.227Z,20.75
2017-12-23T00:04:06.845Z,19.98
2017-12-23T00:06:33.077Z,24.63
2017-12-23T00:08:59.336Z,23.60
2017-12-23T00:11:25.582Z,25.83
2017-12-23T00:13:51.816Z,19.10
2017-12-23T00:16:18.042Z,23.58
2017-12-23T00:18:44.251Z,25.55
2017-12-23T00:21:10.473Z,19.67
2017-12-23T00:23:36.739Z,19.02
2017-12-23T00:26:02.974Z,24.92
2017-12-23T00:28:29.209Z,28.92
2017-12-23T00:30:55.490Z,25.95
2017-12-23T00:33:21.723Z,26.37
2017-12-23T00:35:47.961Z,27.55
2017-12-23T00:38:14.169Z,24.75
2017-12-23T00:40:40.392Z,59.83
2017-12-23T00:43:06.611Z,26.33
2017-12-23T00:45:33.212Z,26.42
2017-12-23T00:47:59.462Z,46.83
2017-12-23T00:50:25.699Z,40.40
2017-12-23T00:52:51.930Z,35.45
2017-12-23T00:55:18.573Z,31.80
2017-12-23T00:57:45.181Z,24.15
2017-12-23T01:00:11.401Z,27.17
2017-12-23T01:02:37.672Z,28.35
2017-12-23T01:05:04.298Z,30.02
2017-12-23T01:07:30.878Z,31.85
2017-12-23T01:09:57.113Z,28.50
2017-12-23T01:12:23.408Z,24.02
2017-12-23T01:14:49.642Z,34.45
2017-12-23T01:17:16.272Z,26.52
2017-12-23T01:19:42.886Z,27.73
2017-12-23T01:22:09.135Z,27.92
2017-12-23T01:24:35.344Z,28.87
2017-12-23T01:27:01.560Z,26.20
2017-12-23T01:29:27.797Z,29.02
2017-12-23T01:31:55.054Z,28.15
2017-12-23T01:34:21.275Z,30.02
2017-12-23T01:36:47.496Z,31.15
2017-12-23T01:39:13.705Z,30.77
2017-12-23T01:41:39.959Z,31.27
2017-12-23T01:44:06.181Z,91.85
2017-12-23T01:46:32.427Z,38.00
2017-12-23T01:48:58.636Z,24.42
2017-12-23T01:51:24.870Z,24.83
2017-12-23T01:53:51.092Z,27.10
2017-12-23T01:56:17.332Z,26.35
2017-12-23T01:58:43.556Z,23.80
2017-12-23T02:01:09.785Z,30.02
2017-12-23T02:03:36.011Z,28.73
2017-12-23T02:06:02.229Z,30.42
2017-12-23T02:08:28.459Z,27.35
2017-12-23T02:10:54.684Z,19.70
2017-12-23T02:13:20.909Z,20.70
2017-12-23T02:15:47.105Z,16.37
2017-12-23T02:18:13.348Z,18.67
2017-12-23T02:20:39.560Z,17.80
2017-12-23T02:23:05.759Z,17.83
2017-12-23T02:25:31.978Z,17.20
2017-12-23T02:27:58.197Z,16.67
2017-12-23T02:30:24.460Z,17.45
2017-12-23T02:32:50.669Z,16.67
2017-12-23T02:35:16.922Z,16.75
2017-12-23T02:37:43.134Z,15.57
2017-12-23T02:40:09.369Z,15.13
2017-12-23T02:42:35.573Z,14.57
2017-12-23T02:45:01.773Z,15.70
2017-12-23T02:47:28.030Z,16.37
2017-12-23T02:49:55.440Z,14.27
2017-12-23T02:52:21.716Z,17.00
2017-12-23T02:54:47.941Z,18.50
2017-12-23T02:57:14.150Z,21.15
2017-12-23T02:59:40.366Z,19.05
2017-12-23T03:02:06.578Z,21.48
2017-12-23T03:04:32.812Z,23.45
2017-12-23T03:06:59.026Z,28.92
2017-12-23T03:09:25.239Z,28.20
2017-12-23T03:11:51.823Z,30.00
2017-12-23T03:14:18.099Z,23.42
2017-12-23T03:16:44.700Z,74.50
2017-12-23T03:19:10.912Z,55.30
2017-12-23T03:21:37.165Z,30.98
2017-12-23T03:24:03.430Z,21.23
2017-12-23T03:26:29.696Z,27.92
2017-12-23T03:28:55.910Z,36.38
2017-12-23T03:31:22.150Z,23.10
2017-12-23T03:33:48.371Z,20.52
2017-12-23T03:36:14.608Z,24.83
2017-12-23T03:38:40.836Z,25.35
2017-12-23T03:41:07.063Z,24.50
2017-12-23T03:43:33.287Z,35.20
2017-12-23T03:45:59.519Z,27.08
2017-12-23T03:48:25.729Z,30.23
2017-12-23T03:50:51.929Z,30.55
2017-12-23T03:53:18.592Z,74.03
2017-12-23T03:55:44.791Z,35.47
2017-12-23T03:58:11.370Z,56.95
2017-12-23T04:00:37.617Z,29.48
2017-12-23T04:03:03.861Z,29.52
2017-12-23T04:05:30.068Z,29.40
2017-12-23T04:07:56.298Z,31.67
2017-12-23T04:10:22.537Z,26.05
2017-12-23T04:12:48.759Z,26.35
2017-12-23T04:15:14.992Z,34.95
2017-12-23T04:17:41.852Z,48.30
2017-12-23T04:20:08.437Z,34.28
2017-12-23T04:22:35.397Z,27.20
2017-12-23T04:25:01.647Z,34.25
2017-12-23T04:27:27.856Z,29.95
2017-12-23T04:29:54.077Z,29.20
2017-12-23T04:32:20.311Z,31.83
2017-12-23T04:34:46.525Z,29.90
2017-12-23T04:37:12.771Z,31.67
2017-12-23T04:39:39.000Z,33.00
2017-12-23T04:42:05.646Z,32.80
2017-12-23T04:44:31.840Z,32.63
2017-12-23T04:46:58.045Z,27.98
2017-12-23T04:49:24.263Z,32.00
2017-12-23T04:51:50.472Z,75.87
2017-12-23T04:54:16.713Z,38.08
2017-12-23T04:56:43.288Z,64.97
2017-12-23T04:59:09.520Z,54.85
2017-12-23T05:01:35.736Z,48.40
2017-12-23T05:04:01.958Z,59.63
2017-12-23T05:06:28.165Z,52.55
2017-12-23T05:08:54.400Z,49.13
2017-12-23T05:11:20.611Z,69.55
2017-12-23T05:13:47.189Z,35.85
2017-12-23T05:16:14.026Z,31.12
2017-12-23T05:18:40.244Z,30.85
2017-12-23T05:21:06.465Z,33.08
2017-12-23T05:23:32.692Z,23.98
2017-12-23T05:25:58.914Z,29.85
2017-12-23T05:28:25.103Z,29.92
2017-12-23T05:30:51.340Z,25.80
2017-12-23T05:33:17.559Z,20.60
2017-12-23T05:35:43.800Z,22.17
2017-12-23T05:38:10.401Z,25.17
2017-12-23T05:40:36.610Z,33.72
2017-12-23T05:43:02.828Z,36.03
2017-12-23T05:45:29.039Z,36.50
2017-12-23T05:47:55.266Z,30.12
2017-12-23T05:50:21.477Z,31.48
2017-12-23T05:52:47.732Z,29.58
2017-12-23T05:55:13.963Z,32.47
2017-12-23T05:57:40.168Z,27.80
2017-12-23T06:00:06.425Z,29.05
2017-12-23T06:02:32.624Z,29.52
2017-12-23T06:05:00.074Z,31.15
2017-12-23T06:07:26.877Z,33.42
2017-12-23T06:09:53.776Z,32.05
2017-12-23T06:12:20.007Z,30.35
2017-12-23T06:14:46.228Z,25.05
2017-12-23T06:17:12.434Z,22.58
2017-12-23T06:19:38.704Z,23.35
2017-12-23T06:22:04.948Z,24.10
2017-12-23T06:24:31.220Z,21.42
2017-12-23T06:26:57.813Z,25.45
2017-12-23T06:29:24.024Z,29.37
2017-12-23T06:31:50.517Z,28.73
2017-12-23T06:34:17.109Z,29.20
2017-12-23T06:36:43.357Z,28.62
2017-12-23T06:39:09.594Z,25.33
2017-12-23T06:41:35.794Z,25.75
2017-12-23T06:44:02.043Z,24.23
2017-12-23T06:46:28.242Z,25.05
2017-12-23T06:48:54.454Z,33.13
2017-12-23T06:51:20.674Z,29.45
2017-12-23T06:53:46.953Z,26.30
2017-12-23T06:56:13.168Z,23.50
2017-12-23T06:58:40.150Z,20.80
2017-12-23T07:01:07.369Z,20.00
2017-12-23T07:03:33.597Z,20.83
2017-12-23T07:05:59.807Z,21.20
2017-12-23T07:08:26.042Z,21.98
2017-12-23T07:10:52.275Z,20.67
2017-12-23T07:13:18.495Z,19.58
2017-12-23T07:15:44.714Z,17.90
2017-12-23T07:18:11.192Z,19.10
2017-12-23T07:20:37.405Z,20.95
2017-12-23T07:23:03.597Z,20.55
2017-12-23T07:25:29.845Z,17.42
2017-12-23T07:27:56.085Z,20.52
2017-12-23T07:30:22.317Z,20.65
2017-12-23T07:32:48.592Z,26.05
2017-12-23T07:35:14.826Z,31.70
2017-12-23T07:37:41.045Z,26.67
2017-12-23T07:40:07.300Z,67.78
2017-12-23T07:42:33.501Z,32.25
2017-12-23T07:44:59.736Z,24.95
2017-12-23T07:47:26.014Z,33.47
2017-12-23T07:49:52.309Z,82.05
2017-12-23T07:52:18.894Z,38.95
2017-12-23T07:54:45.222Z,43.40
2017-12-23T07:57:11.456Z,88.37
2017-12-23T07:59:37.682Z,75.70
2017-12-23T08:02:03.916Z,30.45
2017-12-23T08:04:30.125Z,27.70
2017-12-23T08:06:56.358Z,47.45
2017-12-23T08:09:22.582Z,58.53
2017-12-23T08:11:48.816Z,67.90
2017-12-23T08:14:15.028Z,72.07
2017-12-23T08:16:41.313Z,39.20
2017-12-23T08:19:07.525Z,62.33
2017-12-23T08:21:34.744Z,58.22
2017-12-23T08:24:00.976Z,49.88
2017-12-23T08:26:27.206Z,33.72
2017-12-23T08:28:53.494Z,36.15
2017-12-23T08:31:20.261Z,63.60
2017-12-23T08:33:46.823Z,65.03
2017-12-23T08:36:13.016Z,34.95
2017-12-23T08:38:39.238Z,30.60
2017-12-23T08:41:05.497Z,35.60
2017-12-23T08:43:31.726Z,29.92
2017-12-23T08:45:57.972Z,33.22
2017-12-23T08:48:24.212Z,36.22
2017-12-23T08:50:50.426Z,40.63
2017-12-23T08:53:16.632Z,52.28
2017-12-23T08:55:44.269Z,25.00
2017-12-23T08:58:10.607Z,26.85
2017-12-23T09:00:36.847Z,24.45
2017-12-23T09:03:03.098Z,28.23
2017-12-23T09:05:29.762Z,28.23
2017-12-23T09:07:55.975Z,28.87
2017-12-23T09:10:22.594Z,42.17
2017-12-23T09:12:48.817Z,29.73
2017-12-23T09:15:15.042Z,29.80
2017-12-23T09:17:41.305Z,30.33
2017-12-23T09:20:07.910Z,32.75
2017-12-23T09:22:34.150Z,42.85
2017-12-23T09:25:00.372Z,29.65
2017-12-23T09:27:26.622Z,28.70
2017-12-23T09:29:53.271Z,44.25
2017-12-23T09:32:19.521Z,21.23
2017-12-23T09:34:45.799Z,24.58
2017-12-23T09:37:12.020Z,22.73
2017-12-23T09:39:38.272Z,31.33
2017-12-23T09:42:04.878Z,26.75
2017-12-23T09:44:31.153Z,33.47
2017-12-23T09:46:57.784Z,57.38
2017-12-23T09:49:24.908Z,57.42
2017-12-23T09:51:51.167Z,49.05
2017-12-23T09:54:17.792Z,28.52
2017-12-23T09:56:44.422Z,28.33
2017-12-23T09:59:10.660Z,40.53
2017-12-23T10:01:37.305Z,35.70
2017-12-23T10:04:04.739Z,34.28
2017-12-23T10:06:31.007Z,35.85
2017-12-23T10:08:57.265Z,35.78
2017-12-23T10:11:23.842Z,19.42
2017-12-23T10:13:50.454Z,118.18
2017-12-23T10:16:16.697Z,232.80
2017-12-23T10:18:42.961Z,41.60
2017-12-23T10:21:09.252Z,22.67
2017-12-23T10:23:35.518Z,14.13
2017-12-23T10:26:01.726Z,11.82
2017-12-23T10:28:28.008Z,11.85
2017-12-23T10:30:54.257Z,13.23
2017-12-23T10:33:20.511Z,11.38
2017-12-23T10:35:47.101Z,11.40
2017-12-23T10:38:13.312Z,11.90
2017-12-23T10:40:39.558Z,11.45
2017-12-23T10:43:05.795Z,11.50
2017-12-23T10:45:32.042Z,14.07
2017-12-23T10:47:58.272Z,13.82
2017-12-23T10:50:24.468Z,12.57
2017-12-23T10:52:50.704Z,11.40
2017-12-23T10:55:17.584Z,12.60
2017-12-23T10:57:44.263Z,11.38
2017-12-23T11:00:10.543Z,10.88
2017-12-23T11:02:36.786Z,11.65
2017-12-23T11:05:03.046Z,10.32
2017-12-23T11:07:29.292Z,12.65
2017-12-23T11:09:55.937Z,9.43
2017-12-23T11:12:22.190Z,10.75
2017-12-23T11:14:48.408Z,9.45
2017-12-23T11:17:14.906Z,10.40
2017-12-23T11:19:41.135Z,8.80
2017-12-23T11:22:07.379Z,8.10
2017-12-23T11:24:33.630Z,8.95
2017-12-23T11:26:59.865Z,8.85
2017-12-23T11:29:26.149Z,8.75
2017-12-23T11:31:52.380Z,9.15
2017-12-23T11:34:18.650Z,7.43
2017-12-23T11:36:44.935Z,8.23
2017-12-23T11:39:11.166Z,8.32
2017-12-23T11:41:37.429Z,8.43
2017-12-23T11:44:03.666Z,8.30
2017-12-23T11:46:29.912Z,7.80
2017-12-23T11:48:56.119Z,6.95
2017-12-23T11:51:22.353Z,7.55
2017-12-23T11:53:48.579Z,7.55
2017-12-23T11:56:15.118Z,7.55
2017-12-23T11:58:41.365Z,7.93
2017-12-23T12:01:07.969Z,8.65
2017-12-23T12:03:34.205Z,7.87
2017-12-23T12:06:00.468Z,8.57
2017-12-23T12:08:26.682Z,8.65
2017-12-23T12:10:53.361Z,6.70
2017-12-23T12:13:19.618Z,7.43
2017-12-23T12:15:45.861Z,12.98
2017-12-23T12:18:12.102Z,11.73
2017-12-23T12:20:38.360Z,8.10
2017-12-23T12:23:04.626Z,7.45
2017-12-23T12:25:30.897Z,7.30
2017-12-23T12:27:57.503Z,7.97
2017-12-23T12:30:23.765Z,7.30
2017-12-23T12:32:50.373Z,7.72
2017-12-23T12:35:16.631Z,7.55
2017-12-23T12:37:43.266Z,9.20
2017-12-23T12:40:09.958Z,7.95
2017-12-23T12:42:36.195Z,7.37
2017-12-23T12:45:02.492Z,8.57
2017-12-23T12:47:28.740Z,5.93
2017-12-23T12:49:54.997Z,7.62
2017-12-23T12:52:21.263Z,6.70
2017-12-23T12:54:47.555Z,6.90
2017-12-23T12:57:13.826Z,7.07
2017-12-23T12:59:40.093Z,7.57
2017-12-23T13:02:06.382Z,6.25
2017-12-23T13:04:32.692Z,6.87
2017-12-23T13:06:58.968Z,6.70
2017-12-23T13:09:25.234Z,6.10
2017-12-23T13:11:51.897Z,5.45
2017-12-23T13:14:18.185Z,6.10
2017-12-23T13:16:44.455Z,6.28
2017-12-23T13:19:10.726Z,6.68
2017-12-23T13:21:37.030Z,5.95
2017-12-23T13:24:03.712Z,5.80
2017-12-23T13:26:30.030Z,5.07
2017-12-23T13:28:56.299Z,5.55
2017-12-23T13:31:22.893Z,4.47
2017-12-23T13:33:49.120Z,5.40
2017-12-23T13:36:15.413Z,4.40
2017-12-23T13:38:41.693Z,4.00
2017-12-23T13:41:07.986Z,3.80
2017-12-23T13:43:34.230Z,4.95
2017-12-23T13:46:01.163Z,4.47
2017-12-23T13:48:27.401Z,3.83
2017-12-23T13:50:53.656Z,4.85
2017-12-23T13:53:19.948Z,4.50
2017-12-23T13:55:46.217Z,3.72
2017-12-23T13:58:12.436Z,4.20
2017-12-23T14:00:38.667Z,4.32
2017-12-23T14:03:04.913Z,4.00
2017-12-23T14:05:32.076Z,3.15
2017-12-23T14:07:58.344Z,3.20
2017-12-23T14:10:24.616Z,3.35
2017-12-23T14:12:50.869Z,2.78
2017-12-23T14:15:17.212Z,2.67
2017-12-23T14:17:43.460Z,4.15
2017-12-23T14:20:09.716Z,3.95
2017-12-23T14:22:35.975Z,3.62
2017-12-23T14:25:03.155Z,3.65
2017-12-23T14:27:29.448Z,2.85
2017-12-23T14:29:55.673Z,3.87
2017-12-23T14:32:21.919Z,4.10
2017-12-23T14:34:48.192Z,3.47
2017-12-23T14:37:15.354Z,3.60
2017-12-23T14:39:41.572Z,3.65
2017-12-23T14:42:07.821Z,3.30
2017-12-23T14:44:34.024Z,4.05
2017-12-23T14:47:00.294Z,4.70
2017-12-23T14:49:26.724Z,6.60
2017-12-23T14:51:53.386Z,6.43
2017-12-23T14:54:20.070Z,5.97
2017-12-23T14:56:46.361Z,5.93
2017-12-23T14:59:12.637Z,5.65
2017-12-23T15:01:38.838Z,7.30
2017-12-23T15:04:05.105Z,5.50
2017-12-23T15:06:31.487Z,5.80
2017-12-23T15:08:57.747Z,4.72
2017-12-23T15:11:24.730Z,4.00
2017-12-23T15:13:51.013Z,4.50
2017-12-23T15:16:17.241Z,4.22
2017-12-23T15:18:43.501Z,5.07
2017-12-23T15:21:09.738Z,5.55
2017-12-23T15:23:35.990Z,5.05
2017-12-23T15:26:02.251Z,4.30
2017-12-23T15:28:28.506Z,5.40
2017-12-23T15:30:54.776Z,4.57
2017-12-23T15:33:21.407Z,4.30
2017-12-23T15:35:48.033Z,4.22
2017-12-23T15:38:15.657Z,4.60
2017-12-23T15:40:41.912Z,4.20
2017-12-23T15:43:08.146Z,4.95
2017-12-23T15:45:34.434Z,4.00
2017-12-23T15:48:00.716Z,3.90
2017-12-23T15:50:26.984Z,5.20
2017-12-23T15:52:53.287Z,4.60
2017-12-23T15:55:19.938Z,4.50
2017-12-23T15:57:46.281Z,4.43
2017-12-23T16:00:12.632Z,5.70
2017-12-23T16:02:38.913Z,6.35
2017-12-23T16:05:05.545Z,8.25
2017-12-23T16:07:32.215Z,11.48
2017-12-23T16:09:58.456Z,11.32
2017-12-23T16:12:24.709Z,10.05
2017-12-23T16:14:50.956Z,9.38
2017-12-23T16:17:17.241Z,8.65
2017-12-23T16:19:43.497Z,8.70
2017-12-23T16:22:10.707Z,9.90
2017-12-23T16:24:36.956Z,9.88
2017-12-23T16:27:03.189Z,8.50
2017-12-23T16:29:29.488Z,8.48
2017-12-23T16:31:55.719Z,7.95
2017-12-23T16:34:21.993Z,8.13
2017-12-23T16:36:48.251Z,8.45
2017-12-23T16:39:14.886Z,7.68
2017-12-23T16:41:41.528Z,8.90
2017-12-23T16:44:08.154Z,8.75
2017-12-23T16:46:34.389Z,9.25
2017-12-23T16:49:01.054Z,9.07
2017-12-23T16:51:27.299Z,8.18
2017-12-23T16:53:53.529Z,8.40
2017-12-23T16:56:19.756Z,9.18
2017-12-23T16:58:46.018Z,9.45
2017-12-23T17:01:12.273Z,9.75
2017-12-23T17:03:38.870Z,10.25
2017-12-23T17:06:05.137Z,10.15
2017-12-23T17:08:31.437Z,10.35
2017-12-23T17:10:57.721Z,9.93
2017-12-23T17:13:23.964Z,9.82
2017-12-23T17:15:50.226Z,11.30
2017-12-23T17:18:17.336Z,9.73
2017-12-23T17:20:44.192Z,9.65
2017-12-23T17:23:10.452Z,9.05
2017-12-23T17:25:36.932Z,9.88
2017-12-23T17:28:03.277Z,11.95
2017-12-23T17:30:31.591Z,9.93
2017-12-23T17:32:57.899Z,10.50
2017-12-23T17:35:24.189Z,10.40
2017-12-23T17:37:50.451Z,11.12
2017-12-23T17:40:16.772Z,11.45
2017-12-23T17:42:43.031Z,10.27
2017-12-23T17:45:09.337Z,10.95
2017-12-23T17:47:35.588Z,10.65
2017-12-23T17:50:01.818Z,10.63
2017-12-23T17:52:29.026Z,11.90
2017-12-23T17:54:55.290Z,11.48
2017-12-23T17:57:21.542Z,11.95
2017-12-23T17:59:47.909Z,11.43
2017-12-23T18:02:14.189Z,10.65
2017-12-23T18:04:40.428Z,11.05
2017-12-23T18:07:06.736Z,10.60
2017-12-23T18:09:32.973Z,10.98
2017-12-23T18:11:59.224Z,11.60
2017-12-23T18:14:25.483Z,10.63
2017-12-23T18:16:51.747Z,12.37
2017-12-23T18:19:17.991Z,11.50
2017-12-23T18:21:44.233Z,11.68
2017-12-23T18:24:10.541Z,11.12
2017-12-23T18:26:36.836Z,10.90
2017-12-23T18:29:03.096Z,10.95
2017-12-23T18:31:29.333Z,11.68
2017-12-23T18:33:55.576Z,11.98
2017-12-23T18:36:21.834Z,11.00
2017-12-23T18:38:48.079Z,10.65
2017-12-23T18:41:14.333Z,10.95
2017-12-23T18:43:40.574Z,9.98
2017-12-23T18:46:07.142Z,11.73
2017-12-23T18:48:34.386Z,9.85
2017-12-23T18:51:00.610Z,10.30
2017-12-23T18:53:26.885Z,10.30
2017-12-23T18:55:53.430Z,9.68
2017-12-23T18:58:19.704Z,9.98
2017-12-23T19:00:45.939Z,10.65
2017-12-23T19:03:12.322Z,11.10
2017-12-23T19:05:38.549Z,10.45
2017-12-23T19:08:04.800Z,10.43
2017-12-23T19:10:31.083Z,10.98
2017-12-23T19:12:57.352Z,9.90
2017-12-23T19:15:23.685Z,11.80
2017-12-23T19:17:49.916Z,11.15
2017-12-23T19:20:16.182Z,10.57
2017-12-23T19:22:43.433Z,10.90
2017-12-23T19:25:09.696Z,9.90
2017-12-23T19:27:35.995Z,11.15
2017-12-23T19:30:02.648Z,10.35
2017-12-23T19:32:29.529Z,10.70
2017-12-23T19:34:55.777Z,11.23
2017-12-23T19:37:22.007Z,10.05
2017-12-23T19:39:48.265Z,10.52
2017-12-23T19:42:14.887Z,11.77
2017-12-23T19:44:41.151Z,12.15
2017-12-23T19:47:07.412Z,11.98
2017-12-23T19:49:33.651Z,12.27
2017-12-23T19:52:00.308Z,13.60
2017-12-23T19:54:27.501Z,12.05
2017-12-23T19:56:53.752Z,12.35
2017-12-23T19:59:21.358Z,11.93
2017-12-23T20:01:47.661Z,12.80
2017-12-23T20:04:13.960Z,12.77
2017-12-23T20:06:40.208Z,11.38
2017-12-23T20:09:06.442Z,11.50
2017-12-23T20:11:32.692Z,13.25
2017-12-23T20:13:59.329Z,12.25
2017-12-23T20:16:25.563Z,12.02
2017-12-23T20:18:52.197Z,12.63
2017-12-23T20:21:18.850Z,11.77
2017-12-23T20:23:45.366Z,11.85
2017-12-23T20:26:12.113Z,13.62
2017-12-23T20:28:38.505Z,11.48
2017-12-23T20:31:04.786Z,11.88
2017-12-23T20:33:31.394Z,12.18
2017-12-23T20:35:57.629Z,12.55
2017-12-23T20:38:23.886Z,12.20
2017-12-23T20:40:50.141Z,11.80
2017-12-23T20:43:16.424Z,11.95
2017-12-23T20:45:43.053Z,12.73
2017-12-23T20:48:09.297Z,12.50
2017-12-23T20:50:36.501Z,12.80
2017-12-23T20:53:02.859Z,11.82
2017-12-23T20:55:29.178Z,11.98
2017-12-23T20:57:55.423Z,12.88
2017-12-23T21:00:21.697Z,12.77
2017-12-23T21:02:47.938Z,12.15
2017-12-23T21:05:14.251Z,13.02
2017-12-23T21:07:41.400Z,12.15
2017-12-23T21:10:07.748Z,11.77
2017-12-23T21:12:34.019Z,11.15
2017-12-23T21:15:00.266Z,11.57
2017-12-23T21:17:26.587Z,11.25
2017-12-23T21:19:52.833Z,10.70
2017-12-23T21:22:19.113Z,10.25
2017-12-23T21:24:45.421Z,10.75
2017-12-23T21:27:11.661Z,10.35
2017-12-23T21:29:37.986Z,9.98
2017-12-23T21:32:05.167Z,10.85
2017-12-23T21:34:31.429Z,10.10
2017-12-23T21:36:57.697Z,10.65
2017-12-23T21:39:23.972Z,10.30
2017-12-23T21:41:50.999Z,9.82
2017-12-23T21:44:17.280Z,11.70
2017-12-23T21:46:43.547Z,10.43
2017-12-23T21:49:09.814Z,10.23
2017-12-23T21:51:36.079Z,11.52
2017-12-23T21:54:02.340Z,11.85
2017-12-23T21:56:28.629Z,10.57
2017-12-23T21:58:54.984Z,11.38
2017-12-23T22:01:21.303Z,9.85
2017-12-23T22:03:47.531Z,10.77
2017-12-23T22:06:13.841Z,9.68
2017-12-23T22:08:40.110Z,11.23
2017-12-23T22:11:06.317Z,10.70
2017-12-23T22:13:32.634Z,11.70
2017-12-23T22:15:58.913Z,14.85
2017-12-23T22:18:25.168Z,11.32
2017-12-23T22:20:51.831Z,15.85
2017-12-23T22:23:18.074Z,13.55
2017-12-23T22:25:44.311Z,14.05
2017-12-23T22:28:10.529Z,11.50
2017-12-23T22:30:36.813Z,10.18
2017-12-23T22:33:03.038Z,12.07
2017-12-23T22:35:29.631Z,10.75
2017-12-23T22:37:55.868Z,11.18
2017-12-23T22:40:22.129Z,11.35
2017-12-23T22:42:48.744Z,12.02
2017-12-23T22:45:14.985Z,12.80
2017-12-23T22:47:41.284Z,11.68
2017-12-23T22:50:07.536Z,11.43
2017-12-23T22:52:33.820Z,12.05
2017-12-23T22:55:00.092Z,10.70
2017-12-23T22:57:26.354Z,10.15
2017-12-23T22:59:52.957Z,9.90
2017-12-23T23:02:19.266Z,10.25
2017-12-23T23:04:45.491Z,10.70
2017-12-23T23:07:11.806Z,10.35
2017-12-23T23:09:38.057Z,11.10
2017-12-23T23:12:04.306Z,11.12
2017-12-23T23:14:30.584Z,10.95
2017-12-23T23:16:57.339Z,10.90
2017-12-23T23:19:23.604Z,11.57
2017-12-23T23:21:49.867Z,9.77
2017-12-23T23:24:16.126Z,11.07
2017-12-23T23:26:42.411Z,10.70
2017-12-23T23:29:09.045Z,10.60
2017-12-23T23:31:35.332Z,10.38
2017-12-23T23:34:01.566Z,10.25
2017-12-23T23:36:27.834Z,9.88
2017-12-23T23:38:54.431Z,9.70
2017-12-23T23:41:20.678Z,10.93
2017-12-23T23:43:46.917Z,10.60
2017-12-23T23:46:13.177Z,9.63
2017-12-23T23:48:39.396Z,9.00
2017-12-23T23:51:05.670Z,10.73
2017-12-23T23:53:32.343Z,10.10
2017-12-23T23:56:03.408Z,8.75
2017-12-23T23:58:31.369Z,10.30
